Time;durP1;ratioP1;P1;durP2;ratioP2;P2;SDS_P1;SDS_P2;PMS_P1;PMS_P2;Temp;Humidity;BMP_temperature;BMP_pressure;BME280_temperature;BME280_humidity;BME280_pressure;Samples;Min_cycle;Max_cycle;Signal;HPM_P1;HPM_P2
2023/11/08 00:00:21;;;;;;;11.30;7.50;;;;;;;8.54;100.00;98952.63;109588;1251;60086;-72
2023/11/08 00:02:48;;;;;;;11.60;7.80;;;;;;;8.46;100.00;98952.71;109591;1253;73343;-72
2023/11/08 00:05:15;;;;;;;9.90;7.00;;;;;;;8.38;100.00;98956.34;109606;1251;67194;-72
2023/11/08 00:07:42;;;;;;;9.20;7.10;;;;;;;8.29;100.00;98956.95;109564;1251;72936;-72
2023/11/08 00:10:09;;;;;;;9.10;7.40;;;;;;;8.23;100.00;98957.99;109540;1251;62003;-72
2023/11/08 00:12:35;;;;;;;9.30;6.80;;;;;;;8.21;100.00;98955.94;109559;1252;60759;-73
2023/11/08 00:15:03;;;;;;;11.30;7.30;;;;;;;8.19;100.00;98951.66;109616;1253;72999;-72
2023/11/08 00:17:30;;;;;;;12.30;8.90;;;;;;;8.20;100.00;98952.70;109582;1251;67959;-71
2023/11/08 00:19:57;;;;;;;10.90;7.50;;;;;;;8.23;100.00;98952.86;109528;1251;72425;-71
2023/11/08 00:22:23;;;;;;;10.30;7.40;;;;;;;8.27;100.00;98949.93;109542;1251;57757;-71
2023/11/08 00:24:50;;;;;;;11.20;7.30;;;;;;;8.31;100.00;98954.14;109579;1253;58855;-71
2023/11/08 00:27:16;;;;;;;12.60;8.00;;;;;;;8.36;100.00;98957.64;109615;1251;57775;-72
2023/11/08 00:29:43;;;;;;;9.80;7.40;;;;;;;8.43;100.00;98958.91;109510;1251;67903;-71
2023/11/08 00:32:10;;;;;;;10.20;7.70;;;;;;;8.51;100.00;98955.09;109581;1251;72701;-71
2023/11/08 00:34:37;;;;;;;9.90;7.20;;;;;;;8.58;100.00;98952.44;109529;1253;62444;-72
2023/11/08 00:37:04;;;;;;;10.40;7.10;;;;;;;8.65;100.00;98947.77;109530;1251;60081;-73
2023/11/08 00:39:31;;;;;;;10.50;7.00;;;;;;;8.71;100.00;98938.48;109582;1251;72144;-73
2023/11/08 00:41:58;;;;;;;8.90;6.90;;;;;;;8.76;100.00;98939.09;109563;1251;67852;-73
2023/11/08 00:44:24;;;;;;;8.20;6.80;;;;;;;8.80;100.00;98944.38;109582;1251;72340;-73
2023/11/08 00:46:53;;;;;;;11.30;8.40;;;;;;;8.83;100.00;98946.10;109565;1253;57376;-73
2023/11/08 00:49:20;;;;;;;12.50;8.30;;;;;;;8.86;100.00;98942.41;109542;1253;59980;-72
2023/11/08 00:51:47;;;;;;;10.60;8.20;;;;;;;8.85;100.00;98935.45;109601;1251;72913;-73
2023/11/08 00:54:14;;;;;;;12.80;7.90;;;;;;;8.81;100.00;98935.77;109573;1253;67624;-73
2023/11/08 00:56:40;;;;;;;7.70;6.90;;;;;;;8.77;100.00;98936.73;109582;1251;72686;-73
2023/11/08 00:59:07;;;;;;;11.80;6.60;;;;;;;8.75;100.00;98937.11;109599;1252;60433;-73
2023/11/08 01:01:36;;;;;;;8.80;7.40;;;;;;;8.76;100.00;98930.22;109501;1252;58837;-73
2023/11/08 01:04:10;;;;;;;10.30;7.20;;;;;;;8.79;100.00;98919.52;109617;1251;71729;-72
2023/11/08 01:06:38;;;;;;;10.20;8.20;;;;;;;8.80;100.00;98907.89;109618;1251;66438;-72
2023/11/08 01:09:09;;;;;;;10.00;7.20;;;;;;;8.77;100.00;98902.77;109581;1251;70323;-72
2023/11/08 01:11:41;;;;;;;11.60;8.00;;;;;;;8.68;100.00;98891.55;109542;1252;62040;-73
2023/11/08 01:14:08;;;;;;;10.20;7.20;;;;;;;8.60;100.00;98883.66;109511;1251;60115;-73
2023/11/08 01:16:35;;;;;;;10.00;7.00;;;;;;;8.50;100.00;98874.19;109571;1251;70502;-73
2023/11/08 01:19:02;;;;;;;12.30;7.50;;;;;;;8.37;100.00;98867.72;109600;1251;67475;-73
2023/11/08 01:21:29;;;;;;;12.90;7.90;;;;;;;8.26;100.00;98869.20;109573;1251;72531;-73
2023/11/08 01:23:55;;;;;;;12.60;8.10;;;;;;;8.20;100.00;98871.88;109591;1251;60150;-73
2023/11/08 01:26:22;;;;;;;10.60;8.60;;;;;;;8.15;100.00;98868.92;109677;1251;59370;-72
2023/11/08 01:28:49;;;;;;;11.60;9.00;;;;;;;8.09;100.00;98859.55;109641;1250;73488;-72
2023/11/08 01:31:15;;;;;;;11.30;7.50;;;;;;;8.05;100.00;98861.15;109656;1250;67704;-71
2023/11/08 01:33:42;;;;;;;10.10;7.60;;;;;;;8.04;100.00;98859.93;109639;1250;72594;-71
2023/11/08 01:36:09;;;;;;;12.60;8.20;;;;;;;8.06;100.00;98859.14;109632;1250;60752;-72
2023/11/08 01:38:35;;;;;;;11.50;8.30;;;;;;;8.08;100.00;98860.12;109559;1251;57871;-72
2023/11/08 01:41:02;;;;;;;9.80;7.70;;;;;;;8.13;100.00;98863.35;109617;1251;73003;-72
2023/11/08 01:43:32;;;;;;;11.90;7.60;;;;;;;8.19;100.00;98860.40;109628;1250;68303;-71
2023/11/08 01:46:17;;;;;;;10.80;8.00;;;;;;;8.26;100.00;98855.71;109621;1251;72445;-71
2023/11/08 01:48:44;;;;;;;10.10;7.60;;;;;;;8.34;100.00;98855.70;109560;1251;60397;-71
2023/11/08 01:51:11;;;;;;;9.90;7.50;;;;;;;8.39;100.00;98854.36;109586;1251;58761;-72
2023/11/08 01:53:42;;;;;;;10.30;7.40;;;;;;;8.46;100.00;98852.24;109602;1250;73829;-72
2023/11/08 01:56:10;;;;;;;12.20;8.00;;;;;;;8.47;100.00;98857.91;109561;1250;67298;-72
2023/11/08 01:58:40;;;;;;;10.20;7.40;;;;;;;8.49;100.00;98856.94;109632;1250;72349;-72
2023/11/08 02:01:13;;;;;;;7.70;6.80;;;;;;;8.54;100.00;98858.39;109558;1250;60725;-71
2023/11/08 02:03:40;;;;;;;8.60;6.70;;;;;;;8.61;100.00;98858.78;109593;1251;60172;-72
2023/11/08 02:06:07;;;;;;;14.60;8.20;;;;;;;8.67;100.00;98854.24;109578;1251;72766;-73
2023/11/08 02:08:34;;;;;;;11.10;8.10;;;;;;;8.72;100.00;98853.89;109736;1250;67836;-72
2023/11/08 02:11:02;;;;;;;9.90;7.50;;;;;;;8.73;100.00;98853.98;109533;1251;71052;-73
2023/11/08 02:13:29;;;;;;;13.20;9.10;;;;;;;8.70;100.00;98850.02;109535;1251;60394;-72
2023/11/08 02:15:55;;;;;;;11.00;8.30;;;;;;;8.65;100.00;98845.43;109654;1250;58184;-72
2023/11/08 02:18:22;;;;;;;11.20;7.40;;;;;;;8.61;100.00;98845.23;109619;1250;58110;-72
2023/11/08 02:20:48;;;;;;;10.90;8.30;;;;;;;8.62;100.00;98847.04;109623;1251;67831;-72
2023/11/08 02:23:16;;;;;;;11.80;8.40;;;;;;;8.64;100.00;98841.33;109628;1251;72881;-72
2023/11/08 02:25:43;;;;;;;12.30;8.40;;;;;;;8.68;100.00;98840.20;109591;1251;60242;-72
2023/11/08 02:28:10;;;;;;;9.30;7.10;;;;;;;8.69;100.00;98839.33;109632;1251;60281;-72
2023/11/08 02:30:37;;;;;;;10.60;7.90;;;;;;;8.71;100.00;98843.56;109593;1250;73760;-72
2023/11/08 02:33:04;;;;;;;13.80;7.60;;;;;;;8.73;100.00;98841.18;109717;1250;66088;-72
2023/11/08 02:35:31;;;;;;;10.00;7.20;;;;;;;8.76;100.00;98848.67;109622;1251;71185;-73
2023/11/08 02:37:57;;;;;;;11.30;7.30;;;;;;;8.77;100.00;98849.38;109486;1251;58142;-72
2023/11/08 02:40:24;;;;;;;11.20;7.50;;;;;;;8.78;100.00;98850.48;109617;1251;60151;-72
2023/11/08 02:42:51;;;;;;;11.00;6.70;;;;;;;8.81;100.00;98846.33;109666;1251;73814;-74
2023/11/08 02:45:17;;;;;;;10.40;6.80;;;;;;;8.83;100.00;98845.54;109601;1250;67245;-72
2023/11/08 02:47:44;;;;;;;10.70;7.10;;;;;;;8.84;100.00;98836.06;109597;1251;72519;-72
2023/11/08 02:50:12;;;;;;;14.50;7.90;;;;;;;8.83;100.00;98830.46;109568;1251;60903;-72
2023/11/08 02:52:39;;;;;;;16.20;7.90;;;;;;;8.78;100.00;98829.65;109653;1250;60571;-72
2023/11/08 02:55:06;;;;;;;11.90;7.20;;;;;;;8.73;100.00;98833.23;109658;1251;73920;-72
2023/11/08 02:57:32;;;;;;;15.20;7.00;;;;;;;8.69;100.00;98835.40;109700;1251;67730;-72
2023/11/08 03:00:03;;;;;;;13.60;7.50;;;;;;;8.69;100.00;98838.92;109642;1250;72379;-72
2023/11/08 03:02:33;;;;;;;11.20;6.80;;;;;;;8.72;100.00;98839.89;109595;1250;61927;-72
2023/11/08 03:05:00;;;;;;;9.80;6.10;;;;;;;8.77;100.00;98834.57;109551;1251;60262;-72
2023/11/08 03:07:27;;;;;;;9.80;7.00;;;;;;;8.81;100.00;98830.40;109648;1251;73643;-72
2023/11/08 03:09:54;;;;;;;10.50;7.40;;;;;;;8.80;100.00;98836.02;109648;1251;67688;-72
2023/11/08 03:12:20;;;;;;;13.00;9.40;;;;;;;8.81;100.00;98841.67;109604;1251;71272;-72
2023/11/08 03:14:47;;;;;;;17.60;11.10;;;;;;;8.86;100.00;98847.89;109610;1251;60815;-72
2023/11/08 03:17:13;;;;;;;11.90;7.90;;;;;;;8.87;100.00;98847.04;109621;1250;60954;-73
2023/11/08 03:19:41;;;;;;;12.10;8.00;;;;;;;8.86;100.00;98851.36;109543;1251;73751;-72
2023/11/08 03:22:09;;;;;;;12.50;9.30;;;;;;;8.85;100.00;98852.95;109702;1250;66517;-72
2023/11/08 03:24:36;;;;;;;11.50;9.60;;;;;;;8.85;100.00;98853.95;109700;1251;72345;-72
2023/11/08 03:27:03;;;;;;;10.80;9.50;;;;;;;8.85;100.00;98850.27;109586;1251;60671;-72
2023/11/08 03:29:30;;;;;;;19.40;14.40;;;;;;;8.84;100.00;98842.06;109647;1251;58662;-72
2023/11/08 03:31:57;;;;;;;20.40;13.90;;;;;;;8.82;100.00;98838.06;109712;1251;72375;-72
2023/11/08 03:34:26;;;;;;;19.60;15.70;;;;;;;8.81;100.00;98842.57;109667;1251;67813;-72
2023/11/08 03:36:53;;;;;;;23.20;15.60;;;;;;;8.81;100.00;98838.85;109613;1251;72698;-72
2023/11/08 03:39:20;;;;;;;22.90;16.80;;;;;;;8.81;100.00;98836.94;109641;1250;61657;-71
2023/11/08 03:41:47;;;;;;;19.10;14.70;;;;;;;8.81;100.00;98833.09;109536;1251;60113;-72
2023/11/08 03:44:13;;;;;;;21.30;16.00;;;;;;;8.81;100.00;98827.42;109698;1250;71720;-73
2023/11/08 03:46:42;;;;;;;21.30;16.50;;;;;;;8.81;100.00;98828.58;109681;1251;67932;-74
2023/11/08 03:49:08;;;;;;;15.80;13.20;;;;;;;8.78;100.00;98824.67;109611;1251;72434;-72
2023/11/08 03:51:35;;;;;;;16.90;11.80;;;;;;;8.69;100.00;98816.84;109630;1251;59124;-72
2023/11/08 03:54:03;;;;;;;17.40;12.30;;;;;;;8.59;100.00;98812.69;109664;1251;59151;-72
2023/11/08 03:56:30;;;;;;;14.60;11.60;;;;;;;8.49;100.00;98804.44;109630;1251;72324;-72
2023/11/08 03:58:57;;;;;;;13.60;12.10;;;;;;;8.39;100.00;98799.60;109637;1250;66503;-73
2023/11/08 04:01:24;;;;;;;15.00;10.90;;;;;;;8.31;100.00;98799.20;109623;1251;71020;-73
2023/11/08 04:03:51;;;;;;;12.60;10.30;;;;;;;8.25;100.00;98790.43;109600;1250;61684;-72
2023/11/08 04:06:17;;;;;;;16.60;11.80;;;;;;;8.24;100.00;98787.24;109625;1251;60027;-73
2023/11/08 04:08:44;;;;;;;19.60;12.90;;;;;;;8.23;100.00;98785.36;109562;1250;73845;-73
2023/11/08 04:11:11;;;;;;;18.10;11.40;;;;;;;8.22;100.00;98777.52;109665;1250;67785;-73
2023/11/08 04:13:37;;;;;;;17.00;12.20;;;;;;;8.22;100.00;98770.50;109603;1250;71258;-72
2023/11/08 04:16:05;;;;;;;17.00;12.50;;;;;;;8.20;100.00;98765.20;109644;1251;58764;-72
2023/11/08 04:18:33;;;;;;;22.40;13.30;;;;;;;8.20;100.00;98766.48;109700;1252;59142;-73
2023/11/08 04:21:00;;;;;;;19.60;15.30;;;;;;;8.19;100.00;98772.25;109648;1250;72325;-71
2023/11/08 04:23:27;;;;;;;23.40;14.70;;;;;;;8.20;100.00;98780.96;109745;1250;67677;-71
2023/11/08 04:25:54;;;;;;;24.60;16.60;;;;;;;8.20;100.00;98783.35;109667;1251;72580;-72
2023/11/08 04:28:20;;;;;;;23.80;15.20;;;;;;;8.23;100.00;98785.00;109589;1251;58911;-72
2023/11/08 04:30:47;;;;;;;19.60;12.90;;;;;;;8.25;100.00;98782.01;109651;1250;58799;-72
2023/11/08 04:33:13;;;;;;;14.30;12.20;;;;;;;8.27;100.00;98781.91;109608;1250;72812;-71
2023/11/08 04:35:40;;;;;;;18.60;13.00;;;;;;;8.29;100.00;98785.59;109690;1251;58136;-72
2023/11/08 04:38:07;;;;;;;16.00;11.90;;;;;;;8.30;100.00;98785.68;109641;1251;72522;-73
2023/11/08 04:40:33;;;;;;;22.50;13.10;;;;;;;8.27;100.00;98785.77;109552;1251;60207;-72
2023/11/08 04:43:00;;;;;;;17.70;12.30;;;;;;;8.23;100.00;98787.98;109673;1251;59985;-72
2023/11/08 04:45:26;;;;;;;16.00;12.40;;;;;;;8.20;100.00;98787.95;109608;1250;58079;-73
2023/11/08 04:47:53;;;;;;;15.20;11.40;;;;;;;8.19;100.00;98793.21;109655;1251;67753;-70
2023/11/08 04:50:20;;;;;;;30.40;14.70;;;;;;;8.18;100.00;98793.23;109640;1251;72673;-71
2023/11/08 04:52:46;;;;;;;25.20;14.10;;;;;;;8.17;100.00;98788.83;109620;1251;61779;-71
2023/11/08 04:55:13;;;;;;;15.60;11.80;;;;;;;8.14;100.00;98781.79;109678;1250;60165;-69
2023/11/08 04:57:40;;;;;;;14.40;10.40;;;;;;;8.09;100.00;98785.14;109584;1250;73838;-70
2023/11/08 05:00:07;;;;;;;13.60;10.90;;;;;;;8.04;100.00;98778.27;109626;1250;67554;-70
2023/11/08 05:02:34;;;;;;;14.90;10.20;;;;;;;7.98;100.00;98780.58;109584;1251;71789;-70
2023/11/08 05:05:01;;;;;;;12.60;9.80;;;;;;;7.93;100.00;98778.55;109594;1250;59303;-70
2023/11/08 05:07:27;;;;;;;13.70;10.10;;;;;;;7.89;100.00;98776.52;109597;1251;58073;-69
2023/11/08 05:09:54;;;;;;;13.70;9.80;;;;;;;7.85;100.00;98780.11;109535;1251;72685;-69
2023/11/08 05:12:21;;;;;;;14.60;9.50;;;;;;;7.82;100.00;98780.06;109662;1251;67134;-68
2023/11/08 05:14:48;;;;;;;14.10;9.50;;;;;;;7.82;100.00;98785.52;109597;1251;72557;-68
2023/11/08 05:17:17;;;;;;;12.60;9.00;;;;;;;7.86;100.00;98790.48;109582;1251;58866;-69
2023/11/08 05:19:44;;;;;;;11.30;8.90;;;;;;;7.90;100.00;98794.72;109655;1251;60140;-69
2023/11/08 05:22:14;;;;;;;9.60;8.60;;;;;;;7.96;100.00;98799.49;109624;1251;58542;-69
2023/11/08 05:24:41;;;;;;;11.10;9.40;;;;;;;8.04;100.00;98803.19;109575;1251;68481;-71
2023/11/08 05:27:07;;;;;;;13.70;9.10;;;;;;;8.13;100.00;98805.07;109659;1250;72662;-71
2023/11/08 05:29:35;;;;;;;12.60;8.70;;;;;;;8.18;100.00;98802.14;109599;1251;60352;-70
2023/11/08 05:32:02;;;;;;;12.30;10.00;;;;;;;8.20;100.00;98792.92;109677;1250;60425;-68
2023/11/08 05:34:29;;;;;;;13.00;9.60;;;;;;;8.20;100.00;98793.48;109552;1250;74027;-68
2023/11/08 05:36:55;;;;;;;11.90;9.50;;;;;;;8.19;100.00;98791.48;109632;1251;67732;-65
2023/11/08 05:39:22;;;;;;;13.40;10.10;;;;;;;8.17;100.00;98788.66;109636;1251;71596;-68
2023/11/08 05:41:52;;;;;;;11.40;9.10;;;;;;;8.19;100.00;98781.27;109603;1251;60587;-70
2023/11/08 05:44:19;;;;;;;13.40;9.70;;;;;;;8.22;100.00;98774.96;109568;1251;59214;-67
2023/11/08 05:46:46;;;;;;;14.60;10.70;;;;;;;8.23;100.00;98772.23;109643;1251;72401;-68
2023/11/08 05:49:12;;;;;;;14.10;9.70;;;;;;;8.26;100.00;98771.48;109627;1251;66776;-71
2023/11/08 05:51:39;;;;;;;14.50;11.10;;;;;;;8.29;100.00;98775.56;109542;1251;71448;-69
2023/11/08 05:54:06;;;;;;;16.30;11.40;;;;;;;8.31;100.00;98771.21;109630;1250;60755;-66
2023/11/08 05:56:32;;;;;;;16.50;11.40;;;;;;;8.30;100.00;98771.91;109604;1251;58403;-65
2023/11/08 05:58:59;;;;;;;17.40;11.80;;;;;;;8.30;100.00;98774.16;109607;1250;72479;-67
2023/11/08 06:01:26;;;;;;;18.30;12.10;;;;;;;8.35;100.00;98774.90;109684;1251;68386;-69
2023/11/08 06:03:52;;;;;;;13.90;10.50;;;;;;;8.40;100.00;98774.66;109633;1251;72426;-70
2023/11/08 06:06:19;;;;;;;15.80;11.00;;;;;;;8.46;100.00;98779.58;109679;1250;58762;-66
2023/11/08 06:08:48;;;;;;;16.50;12.20;;;;;;;8.50;100.00;98782.61;109593;1251;60331;-66
2023/11/08 06:11:16;;;;;;;16.90;13.40;;;;;;;8.49;100.00;98783.84;109632;1251;72948;-65
2023/11/08 06:13:43;;;;;;;14.70;12.60;;;;;;;8.46;100.00;98776.70;109695;1250;66741;-68
2023/11/08 06:16:10;;;;;;;18.60;12.20;;;;;;;8.42;100.00;98775.06;109640;1254;71153;-65
2023/11/08 06:18:36;;;;;;;10.70;9.60;;;;;;;8.38;100.00;98781.09;109659;1250;61914;-70
2023/11/08 06:21:03;;;;;;;11.50;9.70;;;;;;;8.32;100.00;98780.27;109575;1251;60142;-71
2023/11/08 06:23:30;;;;;;;12.60;9.90;;;;;;;8.25;100.00;98777.35;109607;1250;74404;-71
2023/11/08 06:25:57;;;;;;;12.00;10.60;;;;;;;8.19;100.00;98762.75;109546;1251;67711;-68
2023/11/08 06:28:25;;;;;;;12.60;10.90;;;;;;;8.10;100.00;98751.66;109586;1251;71205;-66
2023/11/08 06:30:53;;;;;;;15.50;12.60;;;;;;;8.04;100.00;98752.55;109482;1251;60975;-65
2023/11/08 06:33:20;;;;;;;19.00;14.10;;;;;;;7.99;100.00;98760.35;109536;1251;60110;-68
2023/11/08 06:35:46;;;;;;;16.10;11.90;;;;;;;7.98;100.00;98766.67;109658;1251;72630;-68
2023/11/08 06:38:13;;;;;;;17.70;10.70;;;;;;;8.02;100.00;98777.86;109664;1251;68051;-68
2023/11/08 06:40:40;;;;;;;16.60;11.70;;;;;;;8.09;100.00;98776.55;109498;1251;72485;-68
2023/11/08 06:43:06;;;;;;;14.40;10.90;;;;;;;8.14;100.00;98777.54;109503;1251;59121;-68
2023/11/08 06:45:34;;;;;;;15.40;12.30;;;;;;;8.18;100.00;98775.84;109534;1251;58281;-67
2023/11/08 06:48:00;;;;;;;14.80;11.90;;;;;;;8.19;100.00;98772.39;109498;1251;73807;-67
2023/11/08 06:50:27;;;;;;;18.00;10.30;;;;;;;8.18;100.00;98766.17;109412;1251;67624;-67
2023/11/08 06:52:53;;;;;;;12.50;9.90;;;;;;;8.15;100.00;98761.87;109475;1251;58649;-67
2023/11/08 06:55:20;;;;;;;17.00;10.30;;;;;;;8.13;100.00;98760.70;109512;1251;61173;-66
2023/11/08 06:58:02;;;;;;;13.60;10.40;;;;;;;8.15;100.00;98752.41;109664;1253;60297;-66
2023/11/08 07:00:29;;;;;;;15.70;11.00;;;;;;;8.16;100.00;98750.63;109644;1254;73668;-67
2023/11/08 07:02:55;;;;;;;16.00;11.60;;;;;;;8.16;100.00;98749.13;109644;1251;68029;-67
2023/11/08 07:05:22;;;;;;;17.20;13.70;;;;;;;8.14;100.00;98749.95;109616;1251;70645;-67
2023/11/08 07:08:02;;;;;;;15.80;13.70;;;;;;;8.15;100.00;98747.80;109558;1251;63030;-67
2023/11/08 07:10:29;;;;;;;19.40;14.50;;;;;;;8.17;100.00;98753.58;109650;1252;58057;-66
2023/11/08 07:12:56;;;;;;;19.10;14.60;;;;;;;8.20;100.00;98756.00;109632;1251;75063;-67
2023/11/08 07:15:24;;;;;;;18.20;14.70;;;;;;;8.28;100.00;98757.38;109677;1251;67867;-66
2023/11/08 07:17:50;;;;;;;18.50;15.30;;;;;;;8.34;100.00;98754.33;109655;1251;71347;-67
2023/11/08 07:20:17;;;;;;;21.60;14.30;;;;;;;8.35;100.00;98756.05;109585;1251;59243;-67
2023/11/08 07:22:44;;;;;;;19.80;13.60;;;;;;;8.34;100.00;98758.34;109643;1251;58509;-67
2023/11/08 07:25:11;;;;;;;15.90;13.10;;;;;;;8.32;100.00;98759.31;109649;1251;74130;-67
2023/11/08 07:27:38;;;;;;;19.50;14.40;;;;;;;8.28;100.00;98761.45;109652;1251;69073;-66
2023/11/08 07:30:09;;;;;;;23.80;15.20;;;;;;;8.28;100.00;98754.83;109628;1251;72608;-66
2023/11/08 07:32:38;;;;;;;19.00;14.60;;;;;;;8.26;100.00;98752.89;109629;1251;60968;-68
2023/11/08 07:35:05;;;;;;;14.10;10.10;;;;;;;8.23;100.00;98742.77;109573;1251;61561;-67
2023/11/08 07:37:33;;;;;;;16.10;11.70;;;;;;;8.21;100.00;98728.70;109640;1251;73800;-67
2023/11/08 07:40:00;;;;;;;14.90;11.70;;;;;;;8.19;100.00;98729.66;109635;1251;68141;-67
2023/11/08 07:42:27;;;;;;;20.60;11.00;;;;;;;8.18;100.00;98743.88;109609;1254;72917;-67
2023/11/08 07:44:54;;;;;;;23.20;12.40;;;;;;;8.22;100.00;98754.46;109633;1253;61775;-67
2023/11/08 07:47:21;;;;;;;28.00;13.70;;;;;;;8.27;100.00;98744.18;109658;1251;61684;-68
2023/11/08 07:49:48;;;;;;;26.70;14.40;;;;;;;8.34;100.00;98734.62;109646;1255;74879;-67
2023/11/08 07:52:15;;;;;;;14.70;11.70;;;;;;;8.42;100.00;98730.54;109699;1251;66320;-67
2023/11/08 07:54:42;;;;;;;15.70;13.50;;;;;;;8.46;100.00;98733.23;109649;1250;73605;-67
2023/11/08 07:57:08;;;;;;;14.90;13.30;;;;;;;8.48;100.00;98732.88;109647;1251;59360;-66
2023/11/08 07:59:35;;;;;;;12.80;10.50;;;;;;;8.49;100.00;98731.33;109598;1252;60211;-66
2023/11/08 08:02:02;;;;;;;13.10;10.70;;;;;;;8.51;100.00;98738.67;109667;1251;74126;-67
2023/11/08 08:04:29;;;;;;;11.20;10.00;;;;;;;8.53;100.00;98749.02;109650;1251;68035;-65
2023/11/08 08:06:56;;;;;;;12.30;11.10;;;;;;;8.56;100.00;98754.04;109678;1251;72844;-66
2023/11/08 08:09:24;;;;;;;12.30;10.60;;;;;;;8.57;100.00;98759.52;109669;1251;62161;-65
2023/11/08 08:11:51;;;;;;;14.40;11.40;;;;;;;8.61;100.00;98749.20;109672;1251;60677;-66
2023/11/08 08:14:21;;;;;;;14.60;11.50;;;;;;;8.63;100.00;98748.27;109641;1254;72566;-66
2023/11/08 08:16:50;;;;;;;14.50;13.00;;;;;;;8.67;100.00;98752.15;109650;1251;68597;-67
2023/11/08 08:19:17;;;;;;;16.00;12.60;;;;;;;8.75;100.00;98752.53;109632;1251;72747;-67
2023/11/08 08:21:44;;;;;;;20.50;13.60;;;;;;;8.82;100.00;98750.00;109661;1251;63082;-67
2023/11/08 08:24:11;;;;;;;17.10;13.90;;;;;;;8.87;100.00;98748.66;109597;1251;61351;-66
2023/11/08 08:26:39;;;;;;;22.70;15.10;;;;;;;8.93;100.00;98749.79;109679;1251;75149;-66
2023/11/08 08:29:08;;;;;;;20.60;14.60;;;;;;;8.99;100.00;98755.23;109721;1251;69256;-66
2023/11/08 08:31:35;;;;;;;22.50;15.80;;;;;;;9.05;100.00;98756.29;109635;1251;73661;-67
2023/11/08 08:34:02;;;;;;;22.30;17.00;;;;;;;9.11;100.00;98756.61;109633;1252;59422;-67
2023/11/08 08:36:31;;;;;;;25.60;19.00;;;;;;;9.20;100.00;98761.27;109638;1253;59006;-67
2023/11/08 08:38:58;;;;;;;23.70;17.90;;;;;;;9.28;100.00;98769.43;109604;1251;73933;-67
2023/11/08 08:41:25;;;;;;;25.60;18.10;;;;;;;9.38;100.00;98763.05;109673;1251;68061;-67
2023/11/08 08:43:51;;;;;;;19.60;17.50;;;;;;;9.44;100.00;98761.36;109698;1251;72680;-67
2023/11/08 08:46:21;;;;;;;26.20;16.70;;;;;;;9.52;100.00;98758.87;109569;1252;63096;-67
2023/11/08 08:48:49;;;;;;;22.70;18.50;;;;;;;9.60;100.00;98760.19;109635;1250;60418;-67
2023/11/08 08:51:16;;;;;;;24.10;18.30;;;;;;;9.68;100.00;98759.76;109672;1250;71754;-66
2023/11/08 08:53:42;;;;;;;21.80;16.40;;;;;;;9.76;100.00;98762.55;109600;1254;67938;-66
2023/11/08 08:56:10;;;;;;;20.40;18.00;;;;;;;9.81;100.00;98768.25;109564;1251;73230;-67
2023/11/08 08:58:36;;;;;;;20.80;16.80;;;;;;;9.89;100.00;98768.83;109587;1251;60755;-67
2023/11/08 09:01:04;;;;;;;23.50;18.70;;;;;;;10.00;100.00;98764.23;109663;1251;58987;-66
2023/11/08 09:03:30;;;;;;;25.00;18.50;;;;;;;10.07;100.00;98761.26;109675;1252;71678;-67
2023/11/08 09:05:58;;;;;;;23.70;18.70;;;;;;;10.15;100.00;98757.63;109680;1251;67891;-66
2023/11/08 09:08:25;;;;;;;19.80;16.70;;;;;;;10.23;100.00;98746.25;109659;1251;72363;-67
2023/11/08 09:10:53;;;;;;;17.50;15.60;;;;;;;10.25;100.00;98742.06;109568;1250;58151;-66
2023/11/08 09:13:19;;;;;;;17.70;13.50;;;;;;;10.31;100.00;98737.14;109594;1254;60255;-66
2023/11/08 09:15:46;;;;;;;16.80;13.90;;;;;;;10.35;100.00;98734.81;109623;1251;73578;-66
2023/11/08 09:18:12;;;;;;;20.00;14.50;;;;;;;10.37;100.00;98725.31;109677;1250;68032;-66
2023/11/08 09:20:39;;;;;;;18.10;14.50;;;;;;;10.40;100.00;98718.43;109661;1251;71386;-67
2023/11/08 09:23:06;;;;;;;22.90;19.00;;;;;;;10.42;100.00;98709.26;109613;1251;60352;-67
2023/11/08 09:25:34;;;;;;;24.00;21.40;;;;;;;10.44;100.00;98703.21;109620;1251;58162;-66
2023/11/08 09:28:01;;;;;;;30.10;23.30;;;;;;;10.48;100.00;98703.39;109677;1251;71806;-65
2023/11/08 09:30:30;;;;;;;31.90;24.40;;;;;;;10.50;100.00;98697.31;109643;1251;66723;-66
2023/11/08 09:32:57;;;;;;;29.30;22.40;;;;;;;10.54;100.00;98695.27;109603;1251;72566;-66
2023/11/08 09:35:24;;;;;;;22.10;19.90;;;;;;;10.60;100.00;98687.35;109674;1251;62007;-66
2023/11/08 09:37:51;;;;;;;26.90;20.30;;;;;;;10.66;100.00;98684.34;109689;1251;60385;-66
2023/11/08 09:40:17;;;;;;;21.20;19.20;;;;;;;10.70;100.00;98684.02;109718;1251;73899;-66
2023/11/08 09:42:44;;;;;;;20.30;18.20;;;;;;;10.75;100.00;98692.45;109650;1251;68192;-68
2023/11/08 09:45:11;;;;;;;24.60;21.00;;;;;;;10.78;100.00;98699.35;109580;1251;73203;-68
2023/11/08 09:47:38;;;;;;;27.20;21.00;;;;;;;10.76;100.00;98694.76;109660;1251;60382;-67
2023/11/08 09:50:12;;;;;;;23.90;21.60;;;;;;;10.75;100.00;98695.61;109630;1251;60416;-67
2023/11/08 09:52:39;;;;;;;29.20;21.00;;;;;;;10.70;100.00;98695.21;109541;1251;156812;-68
2023/11/08 09:55:06;;;;;;;26.10;20.80;;;;;;;10.66;100.00;98693.02;109682;1250;67985;-67
2023/11/08 09:57:34;;;;;;;24.50;21.90;;;;;;;10.67;100.00;98687.83;109638;1251;71266;-68
2023/11/08 10:00:00;;;;;;;30.20;21.40;;;;;;;10.69;100.00;98687.33;109576;1251;61944;-67
2023/11/08 10:02:39;;;;;;;29.00;20.40;;;;;;;10.75;100.00;98686.39;109675;1251;59002;-67
2023/11/08 10:05:06;;;;;;;23.90;20.40;;;;;;;10.77;100.00;98681.90;109649;1251;73948;-68
2023/11/08 10:07:37;;;;;;;22.80;20.40;;;;;;;10.79;100.00;98677.77;109622;1251;66819;-67
2023/11/08 10:10:04;;;;;;;25.40;21.80;;;;;;;10.79;100.00;98681.66;109594;1251;72780;-68
2023/11/08 10:12:32;;;;;;;23.70;20.80;;;;;;;10.77;100.00;98684.20;109655;1251;60278;-67
2023/11/08 10:15:02;;;;;;;23.00;20.60;;;;;;;10.71;100.00;98685.09;109598;1251;59194;-66
2023/11/08 10:17:41;;;;;;;24.50;19.30;;;;;;;10.63;100.00;98683.49;109634;1251;72145;-65
2023/11/08 10:20:30;;;;;;;25.80;20.20;;;;;;;10.58;100.00;98686.44;109696;1251;66820;-66
2023/11/08 10:22:57;;;;;;;25.90;21.70;;;;;;;10.58;100.00;98683.98;109632;1251;71377;-65
2023/11/08 10:25:26;;;;;;;23.80;20.90;;;;;;;10.61;100.00;98677.17;109621;1251;60476;-67
2023/11/08 10:28:03;;;;;;;24.10;20.20;;;;;;;10.67;100.00;98676.58;109690;1251;60129;-66
2023/11/08 10:30:33;;;;;;;25.60;20.90;;;;;;;10.74;100.00;98673.23;109666;1251;72522;-66
2023/11/08 10:33:09;;;;;;;29.30;20.30;;;;;;;10.75;100.00;98668.50;109666;1251;68268;-67
2023/11/08 10:35:42;;;;;;;24.40;20.40;;;;;;;10.77;100.00;98662.79;109612;1251;72635;-66
2023/11/08 10:38:09;;;;;;;20.30;18.20;;;;;;;10.78;100.00;98665.10;109630;1251;61871;-67
2023/11/08 10:40:36;;;;;;;26.50;19.90;;;;;;;10.80;100.00;98662.48;109568;1251;59580;-67
2023/11/08 10:43:04;;;;;;;23.40;19.40;;;;;;;10.79;100.00;98663.31;109635;1251;72140;-66
2023/11/08 10:45:32;;;;;;;21.50;18.90;;;;;;;10.78;100.00;98659.61;109617;1251;68101;-67
2023/11/08 10:47:59;;;;;;;21.90;19.60;;;;;;;10.81;100.00;98653.21;109599;1251;72730;-67
2023/11/08 10:50:27;;;;;;;23.10;20.10;;;;;;;10.88;100.00;98649.58;109578;1250;61150;-67
2023/11/08 10:52:54;;;;;;;29.40;23.30;;;;;;;10.93;100.00;98649.84;109654;1251;60144;-67
2023/11/08 10:55:25;;;;;;;29.40;24.90;;;;;;;10.97;100.00;98646.55;109645;1251;73800;-65
2023/11/08 10:57:53;;;;;;;31.20;26.10;;;;;;;11.00;100.00;98644.94;109716;1251;68343;-67
2023/11/08 11:00:21;;;;;;;36.30;28.30;;;;;;;11.04;100.00;98647.55;109640;1251;72635;-67
2023/11/08 11:02:58;;;;;;;32.20;28.00;;;;;;;11.09;100.00;98650.62;109595;1251;62012;-67
2023/11/08 11:05:27;;;;;;;33.30;29.60;;;;;;;11.16;100.00;98650.66;109612;1251;60052;-66
2023/11/08 11:07:55;;;;;;;42.10;36.30;;;;;;;11.23;100.00;98652.80;109553;1251;73996;-65
2023/11/08 11:10:21;;;;;;;48.90;41.10;;;;;;;11.29;100.00;98654.90;109630;1251;66660;-66
2023/11/08 11:13:03;;;;;;;53.90;43.90;;;;;;;11.31;100.00;98655.77;109602;1251;72604;-67